sensor_id;sensor_type;location;lat;lon;timestamp;P1;P2;P0
77777;PMS5003;66966;-34.746;138.604;2023-05-03T00:00:01;5;3;
77777;PMS5003;66966;-34.746;138.604;2023-05-03T00:02:26;4;4;
77777;PMS5003;66966;-34.746;138.604;2023-05-03T00:04:51;5;4;
77777;PMS5003;66966;-34.746;138.604;2023-05-03T00:07:17;5;3;
77777;PMS5003;66966;-34.746;138.604;2023-05-03T00:09:42;3;2;
77777;PMS5003;66966;-34.746;138.604;2023-05-03T00:12:08;2;2;
77777;PMS5003;66966;-34.746;138.604;2023-05-03T00:14:33;5;4;
77777;PMS5003;66966;-34.746;138.604;2023-05-03T00:16:58;3;2;
77777;PMS5003;66966;-34.746;138.604;2023-05-03T00:19:24;3;2;
77777;PMS5003;66966;-34.746;138.604;2023-05-03T00:21:50;11;7;
77777;PMS5003;66966;-34.746;138.604;2023-05-03T00:24:15;4;3;
77777;PMS5003;66966;-34.746;138.604;2023-05-03T00:26:41;4;3;
77777;PMS5003;66966;-34.746;138.604;2023-05-03T00:29:06;2;1;
77777;PMS5003;66966;-34.746;138.604;2023-05-03T00:31:31;5;3;
77777;PMS5003;66966;-34.746;138.604;2023-05-03T00:33:57;2;1;
77777;PMS5003;66966;-34.746;138.604;2023-05-03T00:36:23;1;0;
77777;PMS5003;66966;-34.746;138.604;2023-05-03T00:38:48;7;4;
77777;PMS5003;66966;-34.746;138.604;2023-05-03T00:41:13;4;3;
77777;PMS5003;66966;-34.746;138.604;2023-05-03T00:43:39;5;4;
77777;PMS5003;66966;-34.746;138.604;2023-05-03T00:46:05;4;3;
77777;PMS5003;66966;-34.746;138.604;2023-05-03T00:48:30;4;3;
77777;PMS5003;66966;-34.746;138.604;2023-05-03T00:50:56;7;5;
77777;PMS5003;66966;-34.746;138.604;2023-05-03T00:53:21;4;3;
77777;PMS5003;66966;-34.746;138.604;2023-05-03T00:55:46;4;3;
77777;PMS5003;66966;-34.746;138.604;2023-05-03T00:58:12;3;2;
77777;PMS5003;66966;-34.746;138.604;2023-05-03T01:00:37;7;3;
77777;PMS5003;66966;-34.746;138.604;2023-05-03T01:03:02;7;6;
77777;PMS5003;66966;-34.746;138.604;2023-05-03T01:05:31;3;1;
77777;PMS5003;66966;-34.746;138.604;2023-05-03T01:07:55;4;2;
77777;PMS5003;66966;-34.746;138.604;2023-05-03T01:10:22;4;2;
77777;PMS5003;66966;-34.746;138.604;2023-05-03T01:12:48;5;3;
77777;PMS5003;66966;-34.746;138.604;2023-05-03T01:15:11;5;3;
77777;PMS5003;66966;-34.746;138.604;2023-05-03T01:17:38;3;2;
77777;PMS5003;66966;-34.746;138.604;2023-05-03T01:20:03;5;3;
77777;PMS5003;66966;-34.746;138.604;2023-05-03T01:22:31;3;3;
77777;PMS5003;66966;-34.746;138.604;2023-05-03T01:24:57;2;2;
77777;PMS5003;66966;-34.746;138.604;2023-05-03T01:27:17;8;3;
77777;PMS5003;66966;-34.746;138.604;2023-05-03T01:29:43;4;2;
77777;PMS5003;66966;-34.746;138.604;2023-05-03T01:32:10;1;1;
77777;PMS5003;66966;-34.746;138.604;2023-05-03T01:34:36;4;1;
77777;PMS5003;66966;-34.746;138.604;2023-05-03T01:37:00;6;4;
77777;PMS5003;66966;-34.746;138.604;2023-05-03T01:39:25;4;3;
77777;PMS5003;66966;-34.746;138.604;2023-05-03T01:41:50;1;1;
77777;PMS5003;66966;-34.746;138.604;2023-05-03T01:44:16;4;2;
77777;PMS5003;66966;-34.746;138.604;2023-05-03T01:46:42;1;1;
77777;PMS5003;66966;-34.746;138.604;2023-05-03T01:49:07;4;3;
77777;PMS5003;66966;-34.746;138.604;2023-05-03T01:51:32;5;3;
77777;PMS5003;66966;-34.746;138.604;2023-05-03T01:53:58;2;0;
77777;PMS5003;66966;-34.746;138.604;2023-05-03T01:56:23;6;4;
77777;PMS5003;66966;-34.746;138.604;2023-05-03T01:58:48;3;2;
77777;PMS5003;66966;-34.746;138.604;2023-05-03T02:01:14;2;1;
77777;PMS5003;66966;-34.746;138.604;2023-05-03T02:03:39;2;2;
77777;PMS5003;66966;-34.746;138.604;2023-05-03T02:06:05;3;2;
77777;PMS5003;66966;-34.746;138.604;2023-05-03T02:08:31;2;2;
77777;PMS5003;66966;-34.746;138.604;2023-05-03T02:10:56;1;1;
77777;PMS5003;66966;-34.746;138.604;2023-05-03T02:13:22;5;3;
77777;PMS5003;66966;-34.746;138.604;2023-05-03T02:15:47;4;2;
77777;PMS5003;66966;-34.746;138.604;2023-05-03T02:18:12;2;2;
77777;PMS5003;66966;-34.746;138.604;2023-05-03T02:20:38;5;2;
77777;PMS5003;66966;-34.746;138.604;2023-05-03T02:23:03;1;1;
77777;PMS5003;66966;-34.746;138.604;2023-05-03T02:25:29;3;3;
77777;PMS5003;66966;-34.746;138.604;2023-05-03T02:27:54;2;2;
77777;PMS5003;66966;-34.746;138.604;2023-05-03T02:30:20;2;0;
77777;PMS5003;66966;-34.746;138.604;2023-05-03T02:32:45;2;2;
77777;PMS5003;66966;-34.746;138.604;2023-05-03T02:35:10;1;1;
77777;PMS5003;66966;-34.746;138.604;2023-05-03T02:37:36;3;3;
77777;PMS5003;66966;-34.746;138.604;2023-05-03T02:40:01;3;2;
77777;PMS5003;66966;-34.746;138.604;2023-05-03T02:42:27;2;1;
77777;PMS5003;66966;-34.746;138.604;2023-05-03T02:44:52;4;3;
77777;PMS5003;66966;-34.746;138.604;2023-05-03T02:47:19;3;3;
77777;PMS5003;66966;-34.746;138.604;2023-05-03T02:49:45;5;2;
77777;PMS5003;66966;-34.746;138.604;2023-05-03T02:52:09;2;2;
77777;PMS5003;66966;-34.746;138.604;2023-05-03T02:54:34;4;0;
77777;PMS5003;66966;-34.746;138.604;2023-05-03T02:56:59;3;2;
77777;PMS5003;66966;-34.746;138.604;2023-05-03T02:59:25;2;2;
77777;PMS5003;66966;-34.746;138.604;2023-05-03T03:01:50;3;3;
77777;PMS5003;66966;-34.746;138.604;2023-05-03T03:04:15;2;1;
77777;PMS5003;66966;-34.746;138.604;2023-05-03T03:06:41;4;3;
77777;PMS5003;66966;-34.746;138.604;2023-05-03T03:09:06;4;2;
77777;PMS5003;66966;-34.746;138.604;2023-05-03T03:11:32;1;1;
77777;PMS5003;66966;-34.746;138.604;2023-05-03T03:13:57;1;1;
77777;PMS5003;66966;-34.746;138.604;2023-05-03T03:16:22;3;3;
77777;PMS5003;66966;-34.746;138.604;2023-05-03T03:18:49;0;0;
77777;PMS5003;66966;-34.746;138.604;2023-05-03T03:21:13;2;2;
77777;PMS5003;66966;-34.746;138.604;2023-05-03T03:23:39;2;2;
77777;PMS5003;66966;-34.746;138.604;2023-05-03T03:26:04;5;4;
77777;PMS5003;66966;-34.746;138.604;2023-05-03T03:28:30;4;2;
77777;PMS5003;66966;-34.746;138.604;2023-05-03T03:30:55;4;2;
77777;PMS5003;66966;-34.746;138.604;2023-05-03T03:33:20;3;2;
77777;PMS5003;66966;-34.746;138.604;2023-05-03T03:35:47;2;2;
77777;PMS5003;66966;-34.746;138.604;2023-05-03T03:38:13;3;2;
77777;PMS5003;66966;-34.746;138.604;2023-05-03T03:40:37;4;1;
77777;PMS5003;66966;-34.746;138.604;2023-05-03T03:43:03;2;1;
77777;PMS5003;66966;-34.746;138.604;2023-05-03T03:45:28;2;2;
77777;PMS5003;66966;-34.746;138.604;2023-05-03T03:47:53;5;2;
77777;PMS5003;66966;-34.746;138.604;2023-05-03T03:50:19;4;3;
77777;PMS5003;66966;-34.746;138.604;2023-05-03T03:52:44;2;1;
77777;PMS5003;66966;-34.746;138.604;2023-05-03T03:55:09;2;2;
77777;PMS5003;66966;-34.746;138.604;2023-05-03T03:57:35;4;2;
77777;PMS5003;66966;-34.746;138.604;2023-05-03T04:00:00;7;3;
77777;PMS5003;66966;-34.746;138.604;2023-05-03T04:02:26;0;0;
77777;PMS5003;66966;-34.746;138.604;2023-05-03T04:04:51;2;2;
77777;PMS5003;66966;-34.746;138.604;2023-05-03T04:07:16;3;1;
77777;PMS5003;66966;-34.746;138.604;2023-05-03T04:09:42;3;3;
77777;PMS5003;66966;-34.746;138.604;2023-05-03T04:12:07;4;3;
77777;PMS5003;66966;-34.746;138.604;2023-05-03T04:14:33;3;3;
77777;PMS5003;66966;-34.746;138.604;2023-05-03T04:16:58;3;1;
77777;PMS5003;66966;-34.746;138.604;2023-05-03T04:19:23;4;1;
77777;PMS5003;66966;-34.746;138.604;2023-05-03T04:21:49;2;2;
77777;PMS5003;66966;-34.746;138.604;2023-05-03T04:24:14;1;1;
77777;PMS5003;66966;-34.746;138.604;2023-05-03T04:26:40;2;2;
77777;PMS5003;66966;-34.746;138.604;2023-05-03T04:29:05;3;1;
77777;PMS5003;66966;-34.746;138.604;2023-05-03T04:31:31;1;1;
77777;PMS5003;66966;-34.746;138.604;2023-05-03T04:33:56;1;1;
77777;PMS5003;66966;-34.746;138.604;2023-05-03T04:36:21;5;1;
77777;PMS5003;66966;-34.746;138.604;2023-05-03T04:38:47;4;4;
77777;PMS5003;66966;-34.746;138.604;2023-05-03T04:41:12;3;2;
77777;PMS5003;66966;-34.746;138.604;2023-05-03T04:43:38;3;2;
77777;PMS5003;66966;-34.746;138.604;2023-05-03T04:46:03;5;2;
77777;PMS5003;66966;-34.746;138.604;2023-05-03T04:48:29;2;1;
77777;PMS5003;66966;-34.746;138.604;2023-05-03T04:50:54;2;1;
77777;PMS5003;66966;-34.746;138.604;2023-05-03T04:53:19;3;2;
77777;PMS5003;66966;-34.746;138.604;2023-05-03T04:55:45;4;2;
77777;PMS5003;66966;-34.746;138.604;2023-05-03T04:58:10;5;2;
77777;PMS5003;66966;-34.746;138.604;2023-05-03T05:00:36;0;0;
77777;PMS5003;66966;-34.746;138.604;2023-05-03T05:03:01;2;2;
77777;PMS5003;66966;-34.746;138.604;2023-05-03T05:05:26;3;1;
77777;PMS5003;66966;-34.746;138.604;2023-05-03T05:07:52;1;1;
77777;PMS5003;66966;-34.746;138.604;2023-05-03T05:10:17;3;2;
77777;PMS5003;66966;-34.746;138.604;2023-05-03T05:12:42;3;2;
77777;PMS5003;66966;-34.746;138.604;2023-05-03T05:15:08;3;2;
77777;PMS5003;66966;-34.746;138.604;2023-05-03T05:17:33;3;2;
77777;PMS5003;66966;-34.746;138.604;2023-05-03T05:19:59;6;3;
77777;PMS5003;66966;-34.746;138.604;2023-05-03T05:22:24;4;2;
77777;PMS5003;66966;-34.746;138.604;2023-05-03T05:24:49;4;2;
77777;PMS5003;66966;-34.746;138.604;2023-05-03T05:27:15;2;1;
77777;PMS5003;66966;-34.746;138.604;2023-05-03T05:29:40;6;2;
77777;PMS5003;66966;-34.746;138.604;2023-05-03T05:32:06;4;2;
77777;PMS5003;66966;-34.746;138.604;2023-05-03T05:34:31;3;3;
77777;PMS5003;66966;-34.746;138.604;2023-05-03T05:36:57;2;0;
77777;PMS5003;66966;-34.746;138.604;2023-05-03T05:39:23;2;1;
77777;PMS5003;66966;-34.746;138.604;2023-05-03T05:41:48;1;0;
77777;PMS5003;66966;-34.746;138.604;2023-05-03T05:44:13;3;1;
77777;PMS5003;66966;-34.746;138.604;2023-05-03T05:46:38;5;2;
77777;PMS5003;66966;-34.746;138.604;2023-05-03T05:49:03;4;2;
77777;PMS5003;66966;-34.746;138.604;2023-05-03T05:51:29;2;1;
77777;PMS5003;66966;-34.746;138.604;2023-05-03T05:53:54;4;1;
77777;PMS5003;66966;-34.746;138.604;2023-05-03T05:56:20;3;1;
77777;PMS5003;66966;-34.746;138.604;2023-05-03T05:58:45;3;2;
77777;PMS5003;66966;-34.746;138.604;2023-05-03T06:01:11;2;2;
77777;PMS5003;66966;-34.746;138.604;2023-05-03T06:03:37;0;0;
77777;PMS5003;66966;-34.746;138.604;2023-05-03T06:06:02;3;2;
77777;PMS5003;66966;-34.746;138.604;2023-05-03T06:08:27;0;0;
77777;PMS5003;66966;-34.746;138.604;2023-05-03T06:10:53;3;3;
77777;PMS5003;66966;-34.746;138.604;2023-05-03T06:13:18;0;0;
77777;PMS5003;66966;-34.746;138.604;2023-05-03T06:15:44;2;2;
77777;PMS5003;66966;-34.746;138.604;2023-05-03T06:18:09;2;1;
77777;PMS5003;66966;-34.746;138.604;2023-05-03T06:20:34;2;1;
77777;PMS5003;66966;-34.746;138.604;2023-05-03T06:23:00;5;3;
77777;PMS5003;66966;-34.746;138.604;2023-05-03T06:25:25;3;2;
77777;PMS5003;66966;-34.746;138.604;2023-05-03T06:27:51;2;2;
77777;PMS5003;66966;-34.746;138.604;2023-05-03T06:30:16;6;3;
77777;PMS5003;66966;-34.746;138.604;2023-05-03T06:32:42;3;2;
77777;PMS5003;66966;-34.746;138.604;2023-05-03T06:35:08;1;1;
77777;PMS5003;66966;-34.746;138.604;2023-05-03T06:37:33;5;3;
77777;PMS5003;66966;-34.746;138.604;2023-05-03T06:39:58;5;2;
77777;PMS5003;66966;-34.746;138.604;2023-05-03T06:42:23;6;4;
77777;PMS5003;66966;-34.746;138.604;2023-05-03T06:44:49;2;1;
77777;PMS5003;66966;-34.746;138.604;2023-05-03T06:47:14;4;2;
77777;PMS5003;66966;-34.746;138.604;2023-05-03T06:49:40;2;2;
77777;PMS5003;66966;-34.746;138.604;2023-05-03T06:52:06;4;3;
77777;PMS5003;66966;-34.746;138.604;2023-05-03T06:54:30;6;3;
77777;PMS5003;66966;-34.746;138.604;2023-05-03T06:56:56;4;3;
77777;PMS5003;66966;-34.746;138.604;2023-05-03T06:59:21;3;3;
77777;PMS5003;66966;-34.746;138.604;2023-05-03T07:01:46;3;2;
77777;PMS5003;66966;-34.746;138.604;2023-05-03T07:04:13;3;3;
77777;PMS5003;66966;-34.746;138.604;2023-05-03T07:06:37;2;0;
77777;PMS5003;66966;-34.746;138.604;2023-05-03T07:09:03;3;1;
77777;PMS5003;66966;-34.746;138.604;2023-05-03T07:11:28;3;2;
77777;PMS5003;66966;-34.746;138.604;2023-05-03T07:13:54;4;2;
77777;PMS5003;66966;-34.746;138.604;2023-05-03T07:16:20;4;4;
77777;PMS5003;66966;-34.746;138.604;2023-05-03T07:18:45;3;3;
77777;PMS5003;66966;-34.746;138.604;2023-05-03T07:21:10;3;2;
77777;PMS5003;66966;-34.746;138.604;2023-05-03T07:23:36;4;4;
77777;PMS5003;66966;-34.746;138.604;2023-05-03T07:26:06;4;1;
77777;PMS5003;66966;-34.746;138.604;2023-05-03T07:28:27;6;4;
77777;PMS5003;66966;-34.746;138.604;2023-05-03T07:30:52;6;3;
77777;PMS5003;66966;-34.746;138.604;2023-05-03T07:33:17;4;3;
77777;PMS5003;66966;-34.746;138.604;2023-05-03T07:35:44;3;3;
77777;PMS5003;66966;-34.746;138.604;2023-05-03T07:38:08;5;4;
77777;PMS5003;66966;-34.746;138.604;2023-05-03T07:40:34;3;2;
77777;PMS5003;66966;-34.746;138.604;2023-05-03T07:42:59;4;2;
77777;PMS5003;66966;-34.746;138.604;2023-05-03T07:45:25;4;3;
77777;PMS5003;66966;-34.746;138.604;2023-05-03T07:47:50;5;4;
77777;PMS5003;66966;-34.746;138.604;2023-05-03T07:50:16;3;2;
77777;PMS5003;66966;-34.746;138.604;2023-05-03T07:52:41;8;6;
77777;PMS5003;66966;-34.746;138.604;2023-05-03T07:55:07;6;4;
77777;PMS5003;66966;-34.746;138.604;2023-05-03T07:57:32;5;4;
77777;PMS5003;66966;-34.746;138.604;2023-05-03T07:59:57;3;3;
77777;PMS5003;66966;-34.746;138.604;2023-05-03T08:02:23;6;4;
77777;PMS5003;66966;-34.746;138.604;2023-05-03T08:04:48;7;6;
77777;PMS5003;66966;-34.746;138.604;2023-05-03T08:07:14;13;11;
77777;PMS5003;66966;-34.746;138.604;2023-05-03T08:09:39;7;3;
77777;PMS5003;66966;-34.746;138.604;2023-05-03T08:12:04;3;3;
77777;PMS5003;66966;-34.746;138.604;2023-05-03T08:14:30;4;2;
77777;PMS5003;66966;-34.746;138.604;2023-05-03T08:16:55;4;3;
77777;PMS5003;66966;-34.746;138.604;2023-05-03T08:19:20;1;1;
77777;PMS5003;66966;-34.746;138.604;2023-05-03T08:21:46;4;3;
77777;PMS5003;66966;-34.746;138.604;2023-05-03T08:24:11;2;1;
77777;PMS5003;66966;-34.746;138.604;2023-05-03T08:26:37;5;4;
77777;PMS5003;66966;-34.746;138.604;2023-05-03T08:29:03;5;1;
77777;PMS5003;66966;-34.746;138.604;2023-05-03T08:31:28;4;3;
77777;PMS5003;66966;-34.746;138.604;2023-05-03T08:33:53;2;2;
77777;PMS5003;66966;-34.746;138.604;2023-05-03T08:36:19;2;2;
77777;PMS5003;66966;-34.746;138.604;2023-05-03T08:38:44;2;2;
77777;PMS5003;66966;-34.746;138.604;2023-05-03T08:41:13;7;2;
77777;PMS5003;66966;-34.746;138.604;2023-05-03T08:43:35;2;2;
77777;PMS5003;66966;-34.746;138.604;2023-05-03T08:46:01;3;2;
77777;PMS5003;66966;-34.746;138.604;2023-05-03T08:48:27;3;2;
77777;PMS5003;66966;-34.746;138.604;2023-05-03T08:50:52;2;2;
77777;PMS5003;66966;-34.746;138.604;2023-05-03T08:53:18;3;2;
77777;PMS5003;66966;-34.746;138.604;2023-05-03T08:55:43;4;3;
77777;PMS5003;66966;-34.746;138.604;2023-05-03T08:58:09;3;1;
77777;PMS5003;66966;-34.746;138.604;2023-05-03T09:00:34;0;0;
77777;PMS5003;66966;-34.746;138.604;2023-05-03T09:03:00;4;1;
77777;PMS5003;66966;-34.746;138.604;2023-05-03T09:05:32;5;4;
77777;PMS5003;66966;-34.746;138.604;2023-05-03T09:10:21;4;2;
77777;PMS5003;66966;-34.746;138.604;2023-05-03T09:12:42;4;4;
77777;PMS5003;66966;-34.746;138.604;2023-05-03T09:15:08;5;3;
77777;PMS5003;66966;-34.746;138.604;2023-05-03T09:17:33;2;2;
77777;PMS5003;66966;-34.746;138.604;2023-05-03T09:19:58;3;2;
77777;PMS5003;66966;-34.746;138.604;2023-05-03T09:22:25;1;1;
77777;PMS5003;66966;-34.746;138.604;2023-05-03T09:24:50;3;1;
77777;PMS5003;66966;-34.746;138.604;2023-05-03T09:27:17;4;4;
77777;PMS5003;66966;-34.746;138.604;2023-05-03T09:29:45;3;3;
77777;PMS5003;66966;-34.746;138.604;2023-05-03T09:32:05;2;2;
77777;PMS5003;66966;-34.746;138.604;2023-05-03T09:34:31;3;3;
77777;PMS5003;66966;-34.746;138.604;2023-05-03T09:36:56;5;2;
77777;PMS5003;66966;-34.746;138.604;2023-05-03T09:39:22;3;1;
77777;PMS5003;66966;-34.746;138.604;2023-05-03T09:41:48;4;3;
77777;PMS5003;66966;-34.746;138.604;2023-05-03T09:44:13;2;2;
77777;PMS5003;66966;-34.746;138.604;2023-05-03T09:46:39;3;2;
77777;PMS5003;66966;-34.746;138.604;2023-05-03T09:49:04;5;2;
77777;PMS5003;66966;-34.746;138.604;2023-05-03T09:51:30;3;2;
77777;PMS5003;66966;-34.746;138.604;2023-05-03T09:53:56;4;3;
77777;PMS5003;66966;-34.746;138.604;2023-05-03T09:56:21;4;3;
77777;PMS5003;66966;-34.746;138.604;2023-05-03T09:58:46;6;3;
77777;PMS5003;66966;-34.746;138.604;2023-05-03T10:01:12;5;3;
77777;PMS5003;66966;-34.746;138.604;2023-05-03T10:03:39;4;4;
77777;PMS5003;66966;-34.746;138.604;2023-05-03T10:06:04;9;4;
77777;PMS5003;66966;-34.746;138.604;2023-05-03T10:08:30;4;3;
77777;PMS5003;66966;-34.746;138.604;2023-05-03T10:10:54;4;4;
77777;PMS5003;66966;-34.746;138.604;2023-05-03T10:13:20;2;2;
77777;PMS5003;66966;-34.746;138.604;2023-05-03T10:15:45;5;4;
77777;PMS5003;66966;-34.746;138.604;2023-05-03T10:18:12;5;4;
77777;PMS5003;66966;-34.746;138.604;2023-05-03T10:20:38;6;6;
77777;PMS5003;66966;-34.746;138.604;2023-05-03T10:23:07;3;2;
77777;PMS5003;66966;-34.746;138.604;2023-05-03T10:25:27;6;5;
77777;PMS5003;66966;-34.746;138.604;2023-05-03T10:27:53;4;3;
77777;PMS5003;66966;-34.746;138.604;2023-05-03T10:30:29;3;2;
77777;PMS5003;66966;-34.746;138.604;2023-05-03T10:32:44;3;3;
77777;PMS5003;66966;-34.746;138.604;2023-05-03T10:35:11;5;4;
77777;PMS5003;66966;-34.746;138.604;2023-05-03T10:37:37;4;3;
77777;PMS5003;66966;-34.746;138.604;2023-05-03T10:40:08;6;4;
77777;PMS5003;66966;-34.746;138.604;2023-05-03T10:42:27;6;4;
77777;PMS5003;66966;-34.746;138.604;2023-05-03T10:44:53;9;5;
77777;PMS5003;66966;-34.746;138.604;2023-05-03T10:47:18;3;3;
77777;PMS5003;66966;-34.746;138.604;2023-05-03T10:49:44;7;6;
77777;PMS5003;66966;-34.746;138.604;2023-05-03T10:54:35;7;6;
77777;PMS5003;66966;-34.746;138.604;2023-05-03T10:57:00;4;4;
77777;PMS5003;66966;-34.746;138.604;2023-05-03T10:59:26;8;5;
77777;PMS5003;66966;-34.746;138.604;2023-05-03T11:01:51;4;3;
77777;PMS5003;66966;-34.746;138.604;2023-05-03T11:04:20;9;6;
77777;PMS5003;66966;-34.746;138.604;2023-05-03T11:06:43;7;7;
77777;PMS5003;66966;-34.746;138.604;2023-05-03T11:09:09;5;5;
77777;PMS5003;66966;-34.746;138.604;2023-05-03T11:11:35;8;6;
77777;PMS5003;66966;-34.746;138.604;2023-05-03T11:13:59;11;8;
77777;PMS5003;66966;-34.746;138.604;2023-05-03T11:16:25;8;7;
77777;PMS5003;66966;-34.746;138.604;2023-05-03T11:18:51;12;11;
77777;PMS5003;66966;-34.746;138.604;2023-05-03T11:21:16;7;6;
77777;PMS5003;66966;-34.746;138.604;2023-05-03T11:23:42;8;6;
77777;PMS5003;66966;-34.746;138.604;2023-05-03T11:26:08;8;6;
77777;PMS5003;66966;-34.746;138.604;2023-05-03T11:28:33;8;7;
77777;PMS5003;66966;-34.746;138.604;2023-05-03T11:30:59;7;6;
77777;PMS5003;66966;-34.746;138.604;2023-05-03T11:33:24;6;4;
77777;PMS5003;66966;-34.746;138.604;2023-05-03T11:35:49;8;7;
77777;PMS5003;66966;-34.746;138.604;2023-05-03T11:38:15;9;7;
77777;PMS5003;66966;-34.746;138.604;2023-05-03T11:40:41;7;6;
77777;PMS5003;66966;-34.746;138.604;2023-05-03T11:43:07;7;7;
77777;PMS5003;66966;-34.746;138.604;2023-05-03T11:45:38;9;6;
77777;PMS5003;66966;-34.746;138.604;2023-05-03T11:47:57;8;7;
77777;PMS5003;66966;-34.746;138.604;2023-05-03T11:50:26;10;9;
77777;PMS5003;66966;-34.746;138.604;2023-05-03T11:52:49;6;5;
77777;PMS5003;66966;-34.746;138.604;2023-05-03T11:55:14;10;10;
77777;PMS5003;66966;-34.746;138.604;2023-05-03T11:57:39;9;7;
77777;PMS5003;66966;-34.746;138.604;2023-05-03T12:00:09;10;9;
77777;PMS5003;66966;-34.746;138.604;2023-05-03T12:02:31;9;7;
77777;PMS5003;66966;-34.746;138.604;2023-05-03T12:04:56;9;7;
77777;PMS5003;66966;-34.746;138.604;2023-05-03T12:07:21;9;8;
77777;PMS5003;66966;-34.746;138.604;2023-05-03T12:09:47;8;6;
77777;PMS5003;66966;-34.746;138.604;2023-05-03T12:17:11;8;8;
77777;PMS5003;66966;-34.746;138.604;2023-05-03T12:19:30;6;5;
77777;PMS5003;66966;-34.746;138.604;2023-05-03T12:21:55;7;7;
77777;PMS5003;66966;-34.746;138.604;2023-05-03T12:24:21;11;10;
77777;PMS5003;66966;-34.746;138.604;2023-05-03T12:26:46;11;10;
77777;PMS5003;66966;-34.746;138.604;2023-05-03T12:29:13;7;7;
77777;PMS5003;66966;-34.746;138.604;2023-05-03T12:31:38;9;8;
77777;PMS5003;66966;-34.746;138.604;2023-05-03T12:34:03;9;8;
77777;PMS5003;66966;-34.746;138.604;2023-05-03T12:36:29;11;10;
77777;PMS5003;66966;-34.746;138.604;2023-05-03T12:38:55;9;8;
77777;PMS5003;66966;-34.746;138.604;2023-05-03T12:41:20;9;7;
77777;PMS5003;66966;-34.746;138.604;2023-05-03T12:43:47;7;6;
77777;PMS5003;66966;-34.746;138.604;2023-05-03T12:46:11;12;9;
77777;PMS5003;66966;-34.746;138.604;2023-05-03T12:48:37;9;7;
77777;PMS5003;66966;-34.746;138.604;2023-05-03T12:51:03;11;8;
77777;PMS5003;66966;-34.746;138.604;2023-05-03T12:53:34;11;9;
77777;PMS5003;66966;-34.746;138.604;2023-05-03T12:56:00;9;6;
77777;PMS5003;66966;-34.746;138.604;2023-05-03T12:58:20;8;8;
77777;PMS5003;66966;-34.746;138.604;2023-05-03T13:00:45;8;5;
77777;PMS5003;66966;-34.746;138.604;2023-05-03T13:03:11;9;9;
77777;PMS5003;66966;-34.746;138.604;2023-05-03T13:05:36;9;7;
77777;PMS5003;66966;-34.746;138.604;2023-05-03T13:08:02;7;6;
77777;PMS5003;66966;-34.746;138.604;2023-05-03T13:10:28;11;10;
77777;PMS5003;66966;-34.746;138.604;2023-05-03T13:12:53;10;7;
77777;PMS5003;66966;-34.746;138.604;2023-05-03T13:15:19;10;9;
77777;PMS5003;66966;-34.746;138.604;2023-05-03T13:17:45;10;10;
77777;PMS5003;66966;-34.746;138.604;2023-05-03T13:20:11;13;12;
77777;PMS5003;66966;-34.746;138.604;2023-05-03T13:22:36;9;9;
77777;PMS5003;66966;-34.746;138.604;2023-05-03T13:25:02;11;9;
77777;PMS5003;66966;-34.746;138.604;2023-05-03T13:27:27;10;8;
77777;PMS5003;66966;-34.746;138.604;2023-05-03T13:29:53;12;11;
77777;PMS5003;66966;-34.746;138.604;2023-05-03T13:32:19;14;11;
77777;PMS5003;66966;-34.746;138.604;2023-05-03T13:34:44;7;7;
77777;PMS5003;66966;-34.746;138.604;2023-05-03T13:37:10;10;8;
77777;PMS5003;66966;-34.746;138.604;2023-05-03T13:39:35;12;12;
77777;PMS5003;66966;-34.746;138.604;2023-05-03T13:42:01;9;8;
77777;PMS5003;66966;-34.746;138.604;2023-05-03T13:44:27;11;11;
77777;PMS5003;66966;-34.746;138.604;2023-05-03T13:46:52;15;12;
77777;PMS5003;66966;-34.746;138.604;2023-05-03T13:49:18;16;12;
77777;PMS5003;66966;-34.746;138.604;2023-05-03T13:51:44;9;9;
77777;PMS5003;66966;-34.746;138.604;2023-05-03T13:54:10;12;12;
77777;PMS5003;66966;-34.746;138.604;2023-05-03T13:56:36;11;10;
77777;PMS5003;66966;-34.746;138.604;2023-05-03T13:59:01;9;8;
77777;PMS5003;66966;-34.746;138.604;2023-05-03T14:01:27;12;10;
77777;PMS5003;66966;-34.746;138.604;2023-05-03T14:03:52;12;12;
77777;PMS5003;66966;-34.746;138.604;2023-05-03T14:06:17;14;12;
77777;PMS5003;66966;-34.746;138.604;2023-05-03T14:08:43;8;7;
77777;PMS5003;66966;-34.746;138.604;2023-05-03T14:11:11;10;9;
77777;PMS5003;66966;-34.746;138.604;2023-05-03T14:13:34;11;10;
77777;PMS5003;66966;-34.746;138.604;2023-05-03T14:15:59;15;12;
77777;PMS5003;66966;-34.746;138.604;2023-05-03T14:18:24;11;9;
77777;PMS5003;66966;-34.746;138.604;2023-05-03T14:20:50;11;11;
77777;PMS5003;66966;-34.746;138.604;2023-05-03T14:23:16;14;12;
77777;PMS5003;66966;-34.746;138.604;2023-05-03T14:25:42;9;8;
77777;PMS5003;66966;-34.746;138.604;2023-05-03T14:28:07;11;10;
77777;PMS5003;66966;-34.746;138.604;2023-05-03T14:30:33;14;12;
77777;PMS5003;66966;-34.746;138.604;2023-05-03T14:32:59;9;8;
77777;PMS5003;66966;-34.746;138.604;2023-05-03T14:35:24;13;11;
77777;PMS5003;66966;-34.746;138.604;2023-05-03T14:37:50;12;10;
77777;PMS5003;66966;-34.746;138.604;2023-05-03T14:40:15;10;8;
77777;PMS5003;66966;-34.746;138.604;2023-05-03T14:42:41;10;10;
77777;PMS5003;66966;-34.746;138.604;2023-05-03T14:45:07;10;8;
77777;PMS5003;66966;-34.746;138.604;2023-05-03T14:47:32;9;9;
77777;PMS5003;66966;-34.746;138.604;2023-05-03T14:49:57;12;12;
77777;PMS5003;66966;-34.746;138.604;2023-05-03T14:52:23;9;9;
77777;PMS5003;66966;-34.746;138.604;2023-05-03T14:54:48;18;15;
77777;PMS5003;66966;-34.746;138.604;2023-05-03T14:57:14;10;9;
77777;PMS5003;66966;-34.746;138.604;2023-05-03T14:59:39;8;7;
77777;PMS5003;66966;-34.746;138.604;2023-05-03T15:02:05;12;11;
77777;PMS5003;66966;-34.746;138.604;2023-05-03T15:04:31;10;9;
77777;PMS5003;66966;-34.746;138.604;2023-05-03T15:06:59;12;12;
77777;PMS5003;66966;-34.746;138.604;2023-05-03T15:09:22;12;10;
77777;PMS5003;66966;-34.746;138.604;2023-05-03T15:11:48;14;10;
77777;PMS5003;66966;-34.746;138.604;2023-05-03T15:14:13;14;10;
77777;PMS5003;66966;-34.746;138.604;2023-05-03T15:16:39;10;9;
77777;PMS5003;66966;-34.746;138.604;2023-05-03T15:19:05;13;10;
77777;PMS5003;66966;-34.746;138.604;2023-05-03T15:21:42;12;10;
77777;PMS5003;66966;-34.746;138.604;2023-05-03T15:23:57;10;9;
77777;PMS5003;66966;-34.746;138.604;2023-05-03T15:26:22;10;9;
77777;PMS5003;66966;-34.746;138.604;2023-05-03T15:28:48;12;9;
77777;PMS5003;66966;-34.746;138.604;2023-05-03T15:31:13;10;9;
77777;PMS5003;66966;-34.746;138.604;2023-05-03T15:33:40;10;9;
77777;PMS5003;66966;-34.746;138.604;2023-05-03T15:36:06;11;10;
77777;PMS5003;66966;-34.746;138.604;2023-05-03T15:38:30;10;8;
77777;PMS5003;66966;-34.746;138.604;2023-05-03T15:40:56;12;11;
77777;PMS5003;66966;-34.746;138.604;2023-05-03T15:43:22;12;11;
77777;PMS5003;66966;-34.746;138.604;2023-05-03T15:45:48;12;10;
77777;PMS5003;66966;-34.746;138.604;2023-05-03T15:48:13;12;9;
77777;PMS5003;66966;-34.746;138.604;2023-05-03T15:50:39;12;11;
77777;PMS5003;66966;-34.746;138.604;2023-05-03T15:53:05;13;11;